Time;durP1;ratioP1;P1;durP2;ratioP2;P2;SDS_P1;SDS_P2;PMS_P1;PMS_P2;Temp;Humidity;BMP_temperature;BMP_pressure;BME280_temperature;BME280_humidity;BME280_pressure;Samples;Min_cycle;Max_cycle;Signal;HPM_P1;HPM_P2
2022/09/28 00:01:43;;;;;;;4.30;3.05;;;7.90;99.90;;;;;;5090278;28;20043;-78
2022/09/28 00:04:09;;;;;;;4.95;3.03;;;7.90;99.90;;;;;;5073515;28;20071;-76
2022/09/28 00:06:35;;;;;;;4.38;3.03;;;7.90;99.90;;;;;;5091843;28;20040;-77
2022/09/28 00:09:01;;;;;;;4.55;3.17;;;7.90;99.90;;;;;;5096759;28;20525;-77
2022/09/28 00:11:27;;;;;;;5.20;3.47;;;7.90;99.90;;;;;;5096309;28;20036;-77
2022/09/28 00:13:56;;;;;;;4.10;2.97;;;7.90;99.90;;;;;;5097006;28;20519;-77
2022/09/28 00:16:28;;;;;;;5.95;3.88;;;8.00;99.90;;;;;;5097271;28;20039;-77
2022/09/28 00:18:54;;;;;;;5.28;3.55;;;8.00;99.90;;;;;;5096485;28;20040;-78
2022/09/28 00:21:28;;;;;;;4.70;3.60;;;8.00;99.90;;;;;;5097102;28;20165;-77
2022/09/28 00:24:12;;;;;;;5.13;3.53;;;7.90;99.90;;;;;;5096952;28;20050;-77
2022/09/28 00:27:00;;;;;;;5.80;3.47;;;7.90;99.90;;;;;;5097509;28;20409;-77
2022/09/28 00:29:30;;;;;;;5.15;3.33;;;8.00;99.90;;;;;;5096839;28;20036;-77
2022/09/28 00:32:01;;;;;;;6.18;3.75;;;8.00;99.90;;;;;;5096828;28;20060;-77
2022/09/28 00:34:31;;;;;;;6.10;3.63;;;8.00;99.90;;;;;;5097034;28;20527;-77
2022/09/28 00:36:57;;;;;;;8.07;3.63;;;7.90;99.90;;;;;;5096950;28;20048;-77
2022/09/28 00:39:23;;;;;;;5.38;3.67;;;7.90;99.90;;;;;;5097039;28;20398;-77
2022/09/28 00:41:49;;;;;;;5.30;3.70;;;7.90;99.90;;;;;;5096653;28;20038;-77
2022/09/28 00:44:24;;;;;;;4.80;3.67;;;7.80;99.90;;;;;;5096752;28;20116;-77
2022/09/28 00:46:58;;;;;;;6.18;3.83;;;7.90;99.90;;;;;;5079950;28;20116;-77
2022/09/28 00:49:44;;;;;;;7.68;4.20;;;7.90;99.90;;;;;;5096898;28;20044;-77
2022/09/28 00:52:18;;;;;;;6.30;4.53;;;7.90;99.90;;;;;;5096393;28;20040;-77
2022/09/28 00:54:46;;;;;;;6.47;4.00;;;7.90;99.90;;;;;;5096812;28;20082;-77
2022/09/28 00:57:13;;;;;;;4.93;4.18;;;7.90;99.90;;;;;;5079946;28;20083;-77
2022/09/28 00:59:39;;;;;;;5.07;4.35;;;7.90;99.90;;;;;;5096946;28;20102;-77
2022/09/28 01:02:05;;;;;;;5.18;3.92;;;7.90;99.90;;;;;;5096364;28;20040;-77
2022/09/28 01:04:31;;;;;;;5.90;4.20;;;7.80;99.90;;;;;;5096719;28;20098;-77
2022/09/28 01:06:57;;;;;;;8.07;4.47;;;7.90;99.90;;;;;;5096554;28;20119;-77
2022/09/28 01:09:24;;;;;;;4.78;4.15;;;7.80;99.90;;;;;;5096743;28;20036;-77
2022/09/28 01:11:50;;;;;;;5.80;4.25;;;7.80;99.90;;;;;;5079492;28;20036;-77
2022/09/28 01:14:17;;;;;;;7.38;4.30;;;7.80;99.90;;;;;;5096539;28;20044;-78
2022/09/28 01:17:06;;;;;;;6.47;4.80;;;7.70;99.90;;;;;;5096807;28;20048;-77
2022/09/28 01:19:54;;;;;;;5.28;4.22;;;7.70;99.90;;;;;;5092782;28;20040;-77
2022/09/28 01:22:53;;;;;;;5.38;4.30;;;7.60;99.90;;;;;;5093128;28;20074;-77
2022/09/28 01:25:49;;;;;;;6.20;4.13;;;7.60;99.90;;;;;;5093543;28;20405;-77
2022/09/28 01:28:18;;;;;;;5.35;4.10;;;7.50;99.90;;;;;;5093502;28;20047;-77
2022/09/28 01:31:12;;;;;;;5.97;4.65;;;7.50;99.90;;;;;;5093426;28;20123;-77
2022/09/28 01:33:49;;;;;;;5.18;4.38;;;7.50;99.90;;;;;;5112217;28;20652;-77
2022/09/28 01:36:24;;;;;;;5.45;4.32;;;7.40;99.90;;;;;;5093218;28;20055;-77
2022/09/28 01:38:58;;;;;;;6.63;4.28;;;7.40;99.90;;;;;;5093087;28;20043;-77
2022/09/28 01:41:28;;;;;;;5.68;3.92;;;7.40;99.90;;;;;;5092903;28;20086;-77
2022/09/28 01:43:56;;;;;;;6.30;4.00;;;7.40;99.90;;;;;;5092807;28;20052;-78
2022/09/28 01:46:27;;;;;;;5.05;4.15;;;7.30;99.90;;;;;;5092789;28;20047;-77
2022/09/28 01:48:58;;;;;;;7.30;4.47;;;7.30;99.90;;;;;;5091532;28;20048;-78
2022/09/28 01:51:34;;;;;;;6.45;4.45;;;7.30;99.90;;;;;;5092207;28;20120;-77
2022/09/28 01:54:08;;;;;;;7.15;4.47;;;7.20;99.90;;;;;;5092810;28;20093;-77
2022/09/28 01:56:38;;;;;;;7.03;4.68;;;7.20;99.90;;;;;;5076206;28;20048;-77
2022/09/28 01:59:15;;;;;;;4.70;3.80;;;7.10;99.90;;;;;;5075920;28;20040;-77
2022/09/28 02:02:06;;;;;;;6.40;4.00;;;7.10;99.90;;;;;;5075636;28;20043;-77
2022/09/28 02:04:39;;;;;;;6.05;3.80;;;7.00;99.90;;;;;;5092605;28;20083;-77
2022/09/28 02:07:22;;;;;;;6.57;4.35;;;6.90;99.90;;;;;;5092890;28;20551;-77
2022/09/28 02:09:56;;;;;;;7.93;3.97;;;7.00;99.90;;;;;;5092454;28;20119;-77
2022/09/28 02:12:30;;;;;;;6.88;4.30;;;7.00;99.90;;;;;;5092173;28;20323;-77
2022/09/28 02:15:23;;;;;;;7.07;4.13;;;7.10;99.90;;;;;;5091779;28;20039;-77
2022/09/28 02:17:49;;;;;;;7.13;4.63;;;7.20;99.90;;;;;;5090725;28;20083;-77
2022/09/28 02:20:16;;;;;;;7.18;4.30;;;7.20;99.90;;;;;;5092258;28;20071;-77
2022/09/28 02:22:51;;;;;;;8.15;4.70;;;7.20;99.90;;;;;;5091967;28;20036;-77
2022/09/28 02:25:28;;;;;;;7.47;3.80;;;7.30;99.90;;;;;;5092244;28;20036;-77
2022/09/28 02:28:00;;;;;;;6.43;3.83;;;7.30;99.90;;;;;;5092363;28;20093;-77
2022/09/28 02:30:28;;;;;;;8.60;3.85;;;7.30;99.90;;;;;;5091537;28;20040;-78
2022/09/28 02:33:00;;;;;;;9.55;4.65;;;7.30;99.90;;;;;;5091397;28;20382;-77
2022/09/28 02:35:25;;;;;;;8.48;4.75;;;7.30;99.90;;;;;;5091951;28;20047;-77
2022/09/28 02:37:52;;;;;;;10.88;5.75;;;7.30;99.90;;;;;;5090833;28;20040;-77
2022/09/28 02:40:27;;;;;;;31.88;7.45;;;7.40;99.90;;;;;;5091753;28;20720;-77
2022/09/28 02:43:18;;;;;;;17.98;6.35;;;7.40;99.90;;;;;;5090258;28;20537;-77
2022/09/28 02:46:03;;;;;;;15.98;5.45;;;7.40;99.90;;;;;;5092025;28;20406;-77
2022/09/28 02:48:52;;;;;;;31.65;6.78;;;7.50;99.90;;;;;;5091728;28;20040;-78
2022/09/28 02:51:30;;;;;;;28.63;6.65;;;7.50;99.90;;;;;;5091415;28;20055;-77
2022/09/28 02:54:20;;;;;;;21.35;6.63;;;7.50;99.90;;;;;;5091537;28;20048;-77
2022/09/28 02:56:58;;;;;;;29.15;5.82;;;7.50;99.90;;;;;;5091552;28;20044;-77
2022/09/28 02:59:41;;;;;;;75.10;8.27;;;7.50;99.90;;;;;;5091671;28;20047;-77
2022/09/28 03:02:15;;;;;;;16.08;5.60;;;7.40;99.90;;;;;;5110583;28;20047;-77
2022/09/28 03:04:55;;;;;;;32.05;6.25;;;7.30;99.90;;;;;;5098169;28;20048;-77
2022/09/28 03:07:35;;;;;;;22.60;5.72;;;7.30;99.90;;;;;;5091431;28;20038;-77
2022/09/28 03:10:38;;;;;;;36.33;6.28;;;7.30;99.90;;;;;;5091185;28;20076;-77
2022/09/28 03:13:04;;;;;;;20.13;5.05;;;7.20;99.90;;;;;;5087645;28;20056;-77
2022/09/28 03:15:33;;;;;;;25.00;5.00;;;7.10;99.90;;;;;;5074249;28;20036;-77
2022/09/28 03:17:58;;;;;;;15.40;4.70;;;7.00;99.90;;;;;;5091462;28;20040;-77
2022/09/28 03:20:26;;;;;;;20.48;4.45;;;7.00;99.90;;;;;;5091003;28;20042;-77
2022/09/28 03:22:52;;;;;;;28.30;4.45;;;6.90;99.90;;;;;;5090695;28;20048;-77
2022/09/28 03:25:17;;;;;;;26.73;4.30;;;6.90;99.90;;;;;;5091079;28;20043;-77
2022/09/28 03:27:43;;;;;;;29.92;3.95;;;6.80;99.90;;;;;;5090990;28;20028;-77
2022/09/28 03:30:10;;;;;;;34.95;4.70;;;6.70;99.90;;;;;;5091063;28;20123;-77
2022/09/28 03:32:36;;;;;;;80.20;7.50;;;6.70;99.90;;;;;;5093525;28;20040;-77
2022/09/28 03:35:02;;;;;;;76.38;5.60;;;6.60;99.90;;;;;;5080854;28;20051;-77
2022/09/28 03:37:28;;;;;;;45.42;4.60;;;6.60;99.90;;;;;;5090875;28;20044;-77
2022/09/28 03:39:54;;;;;;;62.00;5.25;;;6.50;99.90;;;;;;5073942;28;20036;-77
2022/09/28 03:42:19;;;;;;;36.60;4.22;;;6.50;99.90;;;;;;5090122;28;20505;-77
2022/09/28 03:44:45;;;;;;;83.82;7.15;;;6.50;99.90;;;;;;5074088;28;20117;-77
2022/09/28 03:47:10;;;;;;;64.50;5.60;;;6.50;99.90;;;;;;5090876;28;20089;-77
2022/09/28 03:49:36;;;;;;;42.83;5.22;;;6.40;99.90;;;;;;5090663;28;20039;-77
2022/09/28 03:52:02;;;;;;;45.33;5.30;;;6.40;99.90;;;;;;5090374;28;20039;-77
2022/09/28 03:54:28;;;;;;;38.20;5.32;;;6.40;99.90;;;;;;5090732;28;20131;-77
2022/09/28 03:56:54;;;;;;;13.60;4.50;;;6.40;99.90;;;;;;5090559;28;20119;-77
2022/09/28 03:59:19;;;;;;;13.70;4.18;;;6.40;99.90;;;;;;5090602;28;20527;-77
2022/09/28 04:01:48;;;;;;;21.75;4.68;;;6.40;99.90;;;;;;5090258;28;20035;-77
2022/09/28 04:04:13;;;;;;;16.42;4.47;;;6.40;99.90;;;;;;5090312;28;20118;-77
2022/09/28 04:06:39;;;;;;;20.30;4.93;;;6.40;99.90;;;;;;5090875;28;20055;-77
2022/09/28 04:09:05;;;;;;;42.45;5.25;;;6.40;99.90;;;;;;5090221;28;20040;-77
2022/09/28 04:11:30;;;;;;;18.00;5.65;;;6.40;99.90;;;;;;5089013;28;20032;-77
2022/09/28 04:13:56;;;;;;;22.65;5.10;;;6.30;99.90;;;;;;5089865;28;20044;-77
2022/09/28 04:16:21;;;;;;;26.13;5.60;;;6.30;99.90;;;;;;5090765;28;20044;-77
2022/09/28 04:18:47;;;;;;;26.30;5.13;;;6.30;99.90;;;;;;5090015;28;20040;-77
2022/09/28 04:21:15;;;;;;;33.17;6.25;;;6.30;99.90;;;;;;5090203;28;20047;-77
2022/09/28 04:23:41;;;;;;;29.83;5.72;;;6.30;99.90;;;;;;5090189;28;20078;-77
2022/09/28 04:26:15;;;;;;;23.30;5.68;;;6.20;99.90;;;;;;5090439;28;20067;-77
2022/09/28 04:31:26;;;;;;;30.13;6.10;;;6.10;99.90;;;;;;5090054;28;19920;-77
2022/09/28 04:33:52;;;;;;;33.17;6.28;;;6.10;99.90;;;;;;5090153;28;20040;-77
2022/09/28 04:36:18;;;;;;;49.90;6.10;;;6.00;99.90;;;;;;5090264;28;20165;-77
2022/09/28 04:38:44;;;;;;;29.88;5.93;;;6.10;99.90;;;;;;5090171;28;20036;-77
2022/09/28 04:41:11;;;;;;;52.90;6.45;;;6.00;99.90;;;;;;5091322;28;20047;-77
2022/09/28 04:43:36;;;;;;;16.90;5.00;;;6.10;99.90;;;;;;5089984;28;20161;-77
2022/09/28 04:46:04;;;;;;;15.57;5.20;;;6.00;99.90;;;;;;5090238;28;20044;-77
2022/09/28 04:48:30;;;;;;;11.40;5.38;;;6.00;99.90;;;;;;5090312;28;20064;-77
2022/09/28 04:50:58;;;;;;;8.57;5.30;;;6.00;99.90;;;;;;5090008;28;20402;-77
2022/09/28 04:53:24;;;;;;;9.77;5.40;;;6.00;99.90;;;;;;5090484;28;20406;-77
2022/09/28 04:55:59;;;;;;;8.38;5.60;;;6.10;99.90;;;;;;5094109;28;20040;-77
2022/09/28 04:58:25;;;;;;;7.43;5.53;;;6.10;99.90;;;;;;5093841;28;20040;-77
2022/09/28 05:00:51;;;;;;;7.63;6.03;;;6.10;99.90;;;;;;5093677;28;20533;-77
2022/09/28 05:03:17;;;;;;;6.78;5.60;;;6.10;99.90;;;;;;5076628;28;20044;-77
2022/09/28 05:05:46;;;;;;;6.65;5.50;;;6.10;99.90;;;;;;5094030;28;20036;-77
2022/09/28 05:08:12;;;;;;;7.13;5.93;;;6.10;99.90;;;;;;5093867;28;20050;-77
2022/09/28 05:10:39;;;;;;;7.40;5.80;;;6.20;99.90;;;;;;5093592;28;20031;-77
2022/09/28 05:13:05;;;;;;;7.60;5.88;;;6.20;99.90;;;;;;5093555;28;20465;-77
2022/09/28 05:15:33;;;;;;;7.55;5.53;;;6.20;99.90;;;;;;5093509;28;20040;-77
2022/09/28 05:17:59;;;;;;;7.32;5.45;;;6.30;99.90;;;;;;5093543;28;20112;-77
2022/09/28 05:20:24;;;;;;;7.93;5.47;;;6.30;99.90;;;;;;5093467;28;20505;-77
2022/09/28 05:22:50;;;;;;;6.80;5.63;;;6.30;99.90;;;;;;5093171;28;20047;-77
2022/09/28 05:25:16;;;;;;;8.30;5.72;;;6.40;99.90;;;;;;5093408;28;20085;-77
2022/09/28 05:27:41;;;;;;;6.55;5.35;;;6.40;99.90;;;;;;5077736;28;20036;-77
2022/09/28 05:30:09;;;;;;;6.72;5.30;;;6.50;99.90;;;;;;5114060;28;20095;-76
2022/09/28 05:32:43;;;;;;;7.65;5.95;;;6.50;99.90;;;;;;5111958;28;20036;-77
2022/09/28 05:35:10;;;;;;;7.50;5.95;;;6.50;99.90;;;;;;5111198;28;20035;-77
2022/09/28 05:37:36;;;;;;;7.32;6.15;;;6.60;99.90;;;;;;5096405;28;20089;-77
2022/09/28 05:40:02;;;;;;;8.73;5.97;;;6.60;99.90;;;;;;5098117;28;20044;-77
2022/09/28 05:42:29;;;;;;;7.78;5.63;;;6.60;99.90;;;;;;5092605;28;20039;-77
2022/09/28 05:44:57;;;;;;;7.72;5.93;;;6.70;99.90;;;;;;5093153;28;20044;-77
2022/09/28 05:47:22;;;;;;;7.10;6.10;;;6.70;99.90;;;;;;5092983;28;20040;-77
2022/09/28 05:49:48;;;;;;;6.88;5.72;;;6.70;99.90;;;;;;5092827;28;20042;-77
2022/09/28 05:52:13;;;;;;;7.55;6.22;;;6.70;99.90;;;;;;5092377;28;20481;-77
2022/09/28 05:54:40;;;;;;;7.75;6.32;;;6.70;99.90;;;;;;5092765;28;20059;-77
2022/09/28 05:57:06;;;;;;;8.43;6.55;;;6.70;99.90;;;;;;5094258;28;20046;-77
2022/09/28 05:59:33;;;;;;;9.23;6.68;;;6.70;99.90;;;;;;5094045;28;20044;-77
2022/09/28 06:01:59;;;;;;;7.70;6.55;;;6.70;99.90;;;;;;5092514;28;20047;-77
2022/09/28 06:04:25;;;;;;;8.80;6.22;;;6.70;99.90;;;;;;5092163;28;20039;-77
2022/09/28 06:06:51;;;;;;;9.35;7.05;;;6.70;99.90;;;;;;5092641;28;20040;-77
2022/09/28 06:09:16;;;;;;;8.88;6.95;;;6.70;99.90;;;;;;5092632;28;20063;-77
2022/09/28 06:11:42;;;;;;;9.73;6.75;;;6.70;99.90;;;;;;5092078;28;20528;-77
2022/09/28 06:14:07;;;;;;;10.38;7.38;;;6.70;99.90;;;;;;5092290;28;20063;-77
2022/09/28 06:16:33;;;;;;;9.15;7.78;;;6.80;99.90;;;;;;5075650;28;20093;-77
2022/09/28 06:18:59;;;;;;;10.57;8.30;;;6.80;99.90;;;;;;5092279;28;20497;-77
2022/09/28 06:21:25;;;;;;;11.75;8.27;;;6.80;99.90;;;;;;5075234;28;20043;-77
2022/09/28 06:23:51;;;;;;;10.35;8.10;;;6.80;99.90;;;;;;5092131;28;20047;-77
2022/09/28 06:26:17;;;;;;;12.68;8.27;;;6.90;99.90;;;;;;5092066;28;20409;-77
2022/09/28 06:28:42;;;;;;;10.80;8.40;;;6.90;99.90;;;;;;5092188;28;20409;-77
2022/09/28 06:31:08;;;;;;;11.00;8.10;;;7.00;99.90;;;;;;5092115;28;20497;-77
2022/09/28 06:33:34;;;;;;;11.63;8.75;;;7.10;99.90;;;;;;5091988;28;20054;-77
2022/09/28 06:36:00;;;;;;;10.73;8.43;;;7.10;99.90;;;;;;5092049;28;20074;-77
2022/09/28 06:38:26;;;;;;;11.20;8.63;;;7.20;99.90;;;;;;5091834;28;20064;-77
2022/09/28 06:40:52;;;;;;;10.30;8.23;;;7.30;99.90;;;;;;5092136;28;20096;-77
2022/09/28 06:43:17;;;;;;;12.23;8.85;;;7.20;99.90;;;;;;5091575;28;20115;-77
2022/09/28 06:45:49;;;;;;;12.77;8.95;;;7.20;99.90;;;;;;5091831;28;20032;-77
2022/09/28 06:48:15;;;;;;;10.82;8.38;;;7.20;99.90;;;;;;5091750;28;20038;-77
2022/09/28 06:50:41;;;;;;;12.52;8.15;;;7.30;99.90;;;;;;5091390;28;20071;-77
2022/09/28 06:53:10;;;;;;;12.05;8.65;;;7.30;99.90;;;;;;5091464;28;20501;-77
2022/09/28 06:55:41;;;;;;;11.50;7.93;;;7.30;99.90;;;;;;5091751;28;20044;-77
2022/09/28 06:58:10;;;;;;;11.38;8.00;;;7.30;99.90;;;;;;5091556;28;20040;-77
2022/09/28 07:00:37;;;;;;;10.40;8.80;;;7.40;99.90;;;;;;5091420;28;20032;-77
2022/09/28 07:03:05;;;;;;;10.48;8.43;;;7.40;99.90;;;;;;5091150;28;20071;-77
2022/09/28 07:05:33;;;;;;;11.90;8.48;;;7.50;99.90;;;;;;5091553;28;20451;-78
2022/09/28 07:08:00;;;;;;;10.90;9.02;;;7.60;99.90;;;;;;5091451;28;20075;-78
2022/09/28 07:10:28;;;;;;;11.93;9.02;;;7.70;99.90;;;;;;5091272;28;20100;-78
2022/09/28 07:12:55;;;;;;;11.63;9.30;;;7.80;99.90;;;;;;5091438;28;20044;-77
2022/09/28 07:15:22;;;;;;;11.80;9.25;;;7.80;99.90;;;;;;5091502;28;20125;-77
2022/09/28 07:17:48;;;;;;;10.95;8.57;;;7.90;99.90;;;;;;5091564;28;20044;-78
2022/09/28 07:20:14;;;;;;;11.65;9.25;;;8.00;99.90;;;;;;5091037;28;20100;-77
2022/09/28 07:22:39;;;;;;;13.52;9.05;;;8.10;99.90;;;;;;5073923;28;20097;-78
2022/09/28 07:25:06;;;;;;;10.85;9.00;;;8.20;99.90;;;;;;5091060;28;20048;-78
2022/09/28 07:27:33;;;;;;;12.27;8.55;;;8.30;99.90;;;;;;5091126;28;20505;-78
2022/09/28 07:29:58;;;;;;;11.40;8.82;;;8.50;99.90;;;;;;5091153;28;20044;-78
2022/09/28 07:32:26;;;;;;;11.60;9.25;;;8.50;99.90;;;;;;5090703;28;20119;-78
2022/09/28 07:34:52;;;;;;;12.27;8.82;;;8.70;99.90;;;;;;5091329;28;20048;-77
2022/09/28 07:37:18;;;;;;;11.38;8.82;;;8.80;99.90;;;;;;5090834;28;20071;-77
2022/09/28 07:42:29;;;;;;;11.07;8.30;;;9.00;99.90;;;;;;5090384;28;20043;-78
2022/09/28 07:44:56;;;;;;;10.00;8.40;;;9.20;99.90;;;;;;5090632;28;20036;-77
2022/09/28 07:47:28;;;;;;;12.63;8.30;;;9.30;99.90;;;;;;5074057;28;20106;-77
2022/09/28 07:49:57;;;;;;;10.07;7.93;;;9.30;99.90;;;;;;5074024;28;20405;-78
2022/09/28 07:52:25;;;;;;;13.10;8.15;;;9.40;99.90;;;;;;5073405;28;20028;-77
2022/09/28 07:54:51;;;;;;;9.65;7.32;;;9.50;99.90;;;;;;5090736;28;20044;-77
2022/09/28 07:57:18;;;;;;;10.25;8.25;;;9.60;99.90;;;;;;5097334;28;20032;-77
2022/09/28 07:59:44;;;;;;;10.60;7.85;;;9.80;99.90;;;;;;5110990;28;20492;-78
2022/09/28 08:02:10;;;;;;;9.75;7.80;;;9.80;99.90;;;;;;5100781;28;20039;-77
2022/09/28 08:04:36;;;;;;;11.30;8.05;;;10.00;99.90;;;;;;5090539;28;20048;-77
2022/09/28 08:07:02;;;;;;;10.98;8.13;;;10.10;99.90;;;;;;5090434;28;20489;-77
2022/09/28 08:09:28;;;;;;;11.25;7.63;;;10.20;99.90;;;;;;5090382;28;20028;-78
2022/09/28 08:11:54;;;;;;;11.02;7.57;;;10.40;99.90;;;;;;5090162;28;20067;-77
2022/09/28 08:14:20;;;;;;;8.00;6.53;;;10.40;99.90;;;;;;5090355;28;20055;-77
2022/09/28 08:16:45;;;;;;;9.25;6.97;;;10.60;99.90;;;;;;5073650;28;20130;-78
2022/09/28 08:19:11;;;;;;;7.95;6.72;;;10.60;99.90;;;;;;5090631;28;20382;-77
2022/09/28 08:21:46;;;;;;;9.43;7.45;;;10.60;99.90;;;;;;5090381;28;20040;-77
2022/09/28 08:24:14;;;;;;;10.35;7.10;;;10.70;99.90;;;;;;5073371;28;20039;-77
2022/09/28 08:26:39;;;;;;;8.50;6.75;;;10.80;99.90;;;;;;5090322;28;20077;-77
2022/09/28 08:29:05;;;;;;;8.30;6.13;;;10.90;99.90;;;;;;5076545;28;20207;-77
2022/09/28 08:31:31;;;;;;;7.15;5.95;;;11.00;99.90;;;;;;5094373;28;20489;-78
2022/09/28 08:33:56;;;;;;;6.72;5.35;;;11.10;99.90;;;;;;5077361;28;20128;-77
2022/09/28 08:36:22;;;;;;;8.95;5.60;;;11.10;99.90;;;;;;5094498;28;20411;-77
2022/09/28 08:38:48;;;;;;;7.43;5.57;;;11.10;99.90;;;;;;5094418;28;20409;-78
2022/09/28 08:41:35;;;;;;;10.60;5.47;;;11.20;99.90;;;;;;5093999;28;20046;-77
2022/09/28 08:44:23;;;;;;;5.32;4.30;;;11.30;99.90;;;;;;5093973;28;20036;-77
2022/09/28 08:47:01;;;;;;;5.55;4.20;;;11.30;99.90;;;;;;5094394;28;20493;-76
2022/09/28 08:49:40;;;;;;;6.45;4.07;;;11.30;99.90;;;;;;5093951;28;20104;-77
2022/09/28 08:52:25;;;;;;;5.40;3.90;;;11.40;99.90;;;;;;5093580;28;20040;-77
2022/09/28 08:55:03;;;;;;;5.97;3.78;;;11.30;99.90;;;;;;5093985;28;20052;-78
2022/09/28 08:58:00;;;;;;;6.60;3.38;;;11.10;99.90;;;;;;5093976;28;20532;-77
2022/09/28 09:00:41;;;;;;;5.25;3.70;;;11.20;99.90;;;;;;5093858;28;20098;-77
2022/09/28 09:03:35;;;;;;;4.80;3.60;;;11.30;99.90;;;;;;5093402;28;20036;-77
2022/09/28 09:06:09;;;;;;;4.60;3.35;;;11.30;99.90;;;;;;5091482;28;20119;-77
2022/09/28 09:08:59;;;;;;;5.32;3.15;;;11.20;99.90;;;;;;5093892;28;20036;-77
2022/09/28 09:11:46;;;;;;;5.50;3.60;;;11.20;99.90;;;;;;5093533;28;20047;-77
2022/09/28 09:14:33;;;;;;;6.93;3.15;;;11.20;99.90;;;;;;5093819;28;20160;-77
2022/09/28 09:17:05;;;;;;;3.85;2.63;;;11.20;99.90;;;;;;5093670;28;20044;-77
2022/09/28 09:19:34;;;;;;;5.07;2.42;;;11.10;99.90;;;;;;5093520;28;20114;-77
2022/09/28 09:22:35;;;;;;;5.03;2.53;;;11.20;99.90;;;;;;5093457;28;20444;-77
2022/09/28 09:25:20;;;;;;;4.35;2.90;;;11.20;99.90;;;;;;5057154;28;20087;-77
2022/09/28 09:28:00;;;;;;;3.22;2.30;;;11.30;99.90;;;;;;5076206;28;20071;-77
2022/09/28 09:30:36;;;;;;;3.00;2.28;;;11.50;99.90;;;;;;5092403;28;20032;-77
2022/09/28 09:33:22;;;;;;;4.38;2.20;;;11.70;99.90;;;;;;5092654;28;20040;-77
2022/09/28 09:35:57;;;;;;;5.28;2.10;;;11.90;99.90;;;;;;5093725;28;20067;-77
2022/09/28 09:38:31;;;;;;;5.38;2.40;;;12.10;99.90;;;;;;5093461;28;20047;-77
2022/09/28 09:41:21;;;;;;;2.47;1.80;;;12.20;99.90;;;;;;5091729;28;20051;-78
2022/09/28 09:43:57;;;;;;;4.03;1.90;;;12.40;99.90;;;;;;5092753;28;20119;-77
2022/09/28 09:46:41;;;;;;;2.72;1.40;;;12.60;99.90;;;;;;5092949;28;20078;-77
2022/09/28 09:49:15;;;;;;;2.22;1.52;;;12.70;99.90;;;;;;5075984;28;20078;-77
2022/09/28 09:52:01;;;;;;;1.70;1.20;;;12.90;99.90;;;;;;5092507;28;20068;-77
2022/09/28 09:54:36;;;;;;;2.05;1.15;;;13.00;99.90;;;;;;5092971;28;20153;-77
2022/09/28 09:57:12;;;;;;;3.60;1.08;;;13.00;99.90;;;;;;5092763;28;20040;-77
2022/09/28 09:59:40;;;;;;;4.20;0.90;;;12.90;99.90;;;;;;5092939;28;20055;-77
2022/09/28 10:02:28;;;;;;;1.95;0.80;;;12.90;99.90;;;;;;5092642;28;20459;-77
2022/09/28 10:05:05;;;;;;;3.33;1.00;;;12.90;99.90;;;;;;5075704;28;20071;-77
2022/09/28 10:07:37;;;;;;;3.13;0.98;;;12.90;99.90;;;;;;5092597;28;20058;-77
2022/09/28 10:10:11;;;;;;;4.10;1.02;;;12.80;99.90;;;;;;5092578;28;20123;-76
2022/09/28 10:12:37;;;;;;;2.25;1.10;;;12.60;99.90;;;;;;5092144;28;20079;-77
2022/09/28 10:15:06;;;;;;;3.90;0.80;;;12.50;99.90;;;;;;5092426;28;20474;-77
2022/09/28 10:17:33;;;;;;;2.10;0.80;;;12.40;99.90;;;;;;5105607;28;20035;-76
2022/09/28 10:19:59;;;;;;;2.00;0.73;;;12.30;99.90;;;;;;5108309;28;20056;-77
2022/09/28 10:22:26;;;;;;;2.28;0.82;;;12.30;99.90;;;;;;5092073;28;20086;-76
2022/09/28 10:24:56;;;;;;;1.80;0.80;;;12.30;99.90;;;;;;5092146;28;20040;-76
2022/09/28 10:27:29;;;;;;;3.13;0.77;;;12.40;99.90;;;;;;5092063;28;20054;-77
2022/09/28 10:29:58;;;;;;;3.08;0.85;;;12.60;99.90;;;;;;5092046;28;20031;-76
2022/09/28 10:32:36;;;;;;;1.73;0.95;;;13.00;99.90;;;;;;5091885;28;20070;-77
2022/09/28 10:35:17;;;;;;;2.15;0.73;;;13.30;99.90;;;;;;5092291;28;20131;-76
2022/09/28 10:38:15;;;;;;;1.73;0.80;;;13.70;99.90;;;;;;5091790;28;20051;-76
2022/09/28 10:40:46;;;;;;;2.85;0.98;;;14.00;99.90;;;;;;5092056;28;20036;-77
2022/09/28 10:43:33;;;;;;;1.58;0.70;;;14.20;99.90;;;;;;5089838;28;20047;-77
2022/09/28 10:46:20;;;;;;;1.55;0.93;;;14.20;99.90;;;;;;5090662;28;20032;-77
2022/09/28 10:48:50;;;;;;;3.38;1.10;;;14.30;99.90;;;;;;5091746;28;20062;-77
2022/09/28 10:51:16;;;;;;;3.72;0.82;;;14.20;99.90;;;;;;5091686;28;20484;-77
2022/09/28 10:53:58;;;;;;;3.08;0.80;;;14.10;99.90;;;;;;5090367;28;20032;-77
2022/09/28 10:56:35;;;;;;;3.10;0.90;;;13.90;99.90;;;;;;5091306;28;20077;-77
2022/09/28 10:59:00;;;;;;;1.58;0.70;;;13.80;99.90;;;;;;5091832;28;20105;-77
2022/09/28 11:01:32;;;;;;;1.45;0.70;;;13.60;99.90;;;;;;5091645;28;20078;-77
2022/09/28 11:04:03;;;;;;;3.85;0.90;;;13.60;99.90;;;;;;5091439;28;20040;-77
2022/09/28 11:06:37;;;;;;;1.70;0.60;;;13.60;99.90;;;;;;5091757;28;20401;-76
2022/09/28 11:09:06;;;;;;;1.88;1.00;;;13.80;99.90;;;;;;5091437;28;20074;-77
2022/09/28 11:11:39;;;;;;;3.35;0.80;;;13.90;99.90;;;;;;5091061;28;20039;-78
2022/09/28 11:14:20;;;;;;;1.85;1.00;;;14.10;99.90;;;;;;5091683;28;20052;-77
2022/09/28 11:16:46;;;;;;;2.35;0.60;;;14.30;99.90;;;;;;5091257;28;20047;-78
2022/09/28 11:19:17;;;;;;;2.20;0.63;;;14.30;99.90;;;;;;5074252;28;20524;-76
2022/09/28 11:21:45;;;;;;;4.32;0.57;;;14.40;99.90;;;;;;5091284;28;20413;-77
2022/09/28 11:24:14;;;;;;;1.65;0.52;;;14.40;99.90;;;;;;5090907;28;20040;-77
2022/09/28 11:26:52;;;;;;;1.75;0.60;;;14.30;99.90;;;;;;5091076;28;20046;-77
2022/09/28 11:29:38;;;;;;;2.10;0.60;;;14.30;99.90;;;;;;5091335;28;20044;-77
2022/09/28 11:32:05;;;;;;;1.95;0.60;;;14.40;99.90;;;;;;5090598;28;20043;-77
2022/09/28 11:34:35;;;;;;;2.90;0.50;;;14.40;99.90;;;;;;5091039;28;20497;-77
2022/09/28 11:37:43;;;;;;;1.13;0.40;;;14.30;99.90;;;;;;5100590;28;20074;-77
2022/09/28 11:40:44;;;;;;;1.88;0.57;;;14.10;99.90;;;;;;5052647;28;20191;-77
2022/09/28 11:43:54;;;;;;;2.83;0.40;;;14.00;99.90;;;;;;5098113;28;20120;-78
2022/09/28 11:46:34;;;;;;;0.80;0.38;;;13.80;99.90;;;;;;5111395;28;20070;-78
2022/09/28 11:49:26;;;;;;;1.38;0.43;;;13.60;99.90;;;;;;5093907;28;20042;-77
2022/09/28 11:51:54;;;;;;;1.55;0.50;;;13.50;99.90;;;;;;5087335;28;20048;-78
2022/09/28 11:54:38;;;;;;;0.95;0.30;;;13.60;99.90;;;;;;5090673;28;20051;-77
2022/09/28 11:57:10;;;;;;;0.73;0.52;;;13.70;99.90;;;;;;5090478;28;20047;-77
2022/09/28 11:59:51;;;;;;;1.35;0.50;;;13.90;99.90;;;;;;5090489;28;20043;-77
2022/09/28 12:02:26;;;;;;;2.10;0.50;;;14.00;99.90;;;;;;5089916;28;20054;-77
2022/09/28 12:05:11;;;;;;;1.10;0.57;;;14.10;99.90;;;;;;5090478;28;20101;-76
2022/09/28 12:07:42;;;;;;;1.27;0.68;;;14.20;99.90;;;;;;5090557;28;20048;-78
2022/09/28 12:10:29;;;;;;;1.00;0.55;;;14.10;99.90;;;;;;5090710;28;20485;-77
2022/09/28 12:13:11;;;;;;;1.63;0.50;;;14.30;99.90;;;;;;5073355;28;20074;-77
2022/09/28 12:16:00;;;;;;;2.35;0.90;;;14.50;99.90;;;;;;5090511;28;20047;-77
2022/09/28 12:18:35;;;;;;;2.92;0.50;;;14.60;99.90;;;;;;5090680;28;20370;-77
2022/09/28 12:21:17;;;;;;;1.50;0.60;;;14.70;99.90;;;;;;5090307;28;20058;-77
2022/09/28 12:23:43;;;;;;;2.38;0.60;;;15.10;99.90;;;;;;5090232;28;20093;-76
2022/09/28 12:26:27;;;;;;;1.95;0.40;;;15.50;99.90;;;;;;5090616;28;20043;-76
2022/09/28 12:29:00;;;;;;;1.00;0.60;;;15.30;99.90;;;;;;5073697;28;20064;-77
2022/09/28 12:31:36;;;;;;;1.15;0.40;;;15.20;99.90;;;;;;5090106;28;20040;-78
2022/09/28 12:34:02;;;;;;;1.85;0.40;;;14.80;99.90;;;;;;5090284;28;20081;-77
2022/09/28 12:36:54;;;;;;;1.33;0.40;;;14.30;99.90;;;;;;5090453;28;20516;-78
2022/09/28 12:39:50;;;;;;;1.40;0.40;;;13.80;99.90;;;;;;5090334;28;20036;-77
2022/09/28 12:42:43;;;;;;;0.70;0.30;;;13.30;99.90;;;;;;5090187;28;20047;-79
2022/09/28 12:45:32;;;;;;;1.17;0.45;;;12.80;99.90;;;;;;5090164;28;20529;-78
2022/09/28 12:48:35;;;;;;;1.75;0.30;;;12.70;99.90;;;;;;5090583;28;20617;-78
2022/09/28 12:51:17;;;;;;;0.30;0.10;;;12.40;99.90;;;;;;5089888;28;20050;-78
2022/09/28 12:54:00;;;;;;;0.90;0.20;;;12.30;99.90;;;;;;5083015;28;20558;-77
2022/09/28 12:56:55;;;;;;;1.10;0.20;;;12.50;99.90;;;;;;5107884;28;20051;-77
2022/09/28 12:59:29;;;;;;;;;;;12.70;99.90;;;;;;5077062;28;20048;-78
2022/09/28 13:02:13;;;;;;;;;;;13.10;99.90;;;;;;5090651;28;20296;-78
2022/09/28 13:05:29;;;;;;;0.30;0.17;;;13.60;99.90;;;;;;5089979;28;19919;-77
2022/09/28 13:08:12;;;;;;;0.57;0.10;;;13.80;99.90;;;;;;5089937;28;20036;-77
2022/09/28 13:10:50;;;;;;;0.10;0.10;;;13.90;99.90;;;;;;5090036;28;20044;-77
2022/09/28 13:13:43;;;;;;;0.00;0.00;;;13.80;99.90;;;;;;5089836;28;20044;-77
2022/09/28 13:16:24;;;;;;;0.10;0.10;;;13.90;99.90;;;;;;5092707;28;20044;-77
2022/09/28 13:19:10;;;;;;;0.10;0.10;;;13.70;99.90;;;;;;5093667;28;20051;-77
2022/09/28 13:21:47;;;;;;;0.25;0.10;;;13.60;99.90;;;;;;5093664;28;20437;-77
2022/09/28 13:24:27;;;;;;;0.28;0.10;;;13.70;99.90;;;;;;5076533;28;20059;-77
2022/09/28 13:26:57;;;;;;;1.33;0.22;;;13.80;99.90;;;;;;5093722;28;20054;-77